• Join FlightAware (Why Join?)
  • Login
  • US Flag 
05:40AM EDT


 

Airport Tracker/Info


-or-


 

Live Flight TrackerFlight Track Log ✈ SWA923 ✈ 19-Oct-2013 ✈ KCMH - KLAS

Flight Track Log - Related Links

Times and Time Zones

All times are in EDT time to prevent confusion due to time zone crossing. See the SWA923 flight status page for this flight to view local times or setup timezone preferences in your user account.

Time Position Orientation Groundspeed Altitude Reporting Facility
EDT Latitude Longitude Course Direction KTS MPH feet Rate Location/Type
03:18PM 39.9939 -82.9086 281° West 152 175 1,500  Level Indianapolis Center
03:19PM 39.9964 -82.9253 281° West 149 171 2,100 1,800 Climbing Indianapolis Center
03:20PM 40.0261 -82.9617 317° Northwest 171 197 3,600 1,740 Climbing Indianapolis Center
03:20PM 40.0283 -82.9661 303° West 183 211 3,700 1,920 Climbing Indianapolis Center
03:21PM 40.0589 -83.0294 302° West 211 243 5,600 2,820 Climbing Indianapolis Center
03:22PM 40.0911 -83.1094 298° West 247 284 9,300 2,820 Climbing Indianapolis Center
03:23PM 40.1272 -83.1944 299° West 264 304 11,400 2,520 Climbing Indianapolis Center
03:24PM 40.1733 -83.2972 300° West 323 372 14,500 2,820 Climbing Indianapolis Center
03:25PM 40.2192 -83.4019 300° West 333 383 17,300 2,820 Climbing Indianapolis Center
03:26PM 40.2775 -83.5364 300° West 356 410 20,400 2,700 Climbing Indianapolis Center
03:27PM 40.3286 -83.6528 300° West 369 425 22,900 2,280 Climbing Indianapolis Center
03:28PM 40.3806 -83.7717 300° West 376 433 25,100 1,800 Climbing Indianapolis Center
03:29PM 40.4339 -83.8958 299° West 389 448 26,700 900 Climbing Indianapolis Center
03:30PM 40.4886 -84.0233 299° West 399 459 27,000 120 Climbing Indianapolis Center
03:31PM 40.5436 -84.1511 300° West 404 465 27,000 720 Level Indianapolis Center
03:32PM 40.5983 -84.2792 299° West 403 464 28,600 1,920 Climbing Indianapolis Center
03:33PM 40.6642 -84.4344 299° West 407 468 31,000 1,920 Climbing Indianapolis Center
03:34PM 40.7167 -84.5608 299° West 397 457 32,600 1,500 Climbing Indianapolis Center
03:35PM 40.7706 -84.6881 299° West 398 458 34,100 1,380 Climbing Indianapolis Center
03:36PM 40.8228 -84.8117 299° West 390 449 35,500 960 Climbing Indianapolis Center
03:37PM 40.8389 -84.9389 280° West 380 437 36,100 780 Climbing Indianapolis Center
03:38PM 40.8419 -85.1028 271° West 374 430 37,100 900 Climbing Indianapolis Center
03:39PM 40.8444 -85.2378 271° West 370 426 38,000 420 Climbing Indianapolis Center
03:40PM 40.8444 -85.3736 270° West 371 427 38,000  Level Indianapolis Center
03:41PM 40.8447 -85.5081 270° West 370 426 38,000  Level Indianapolis Center
03:42PM 40.8442 -85.6711 270° West 372 428 38,000  Level Chicago Center
03:43PM 40.8444 -85.8086 270° West 373 429 38,000  Level Chicago Center
03:44PM 40.8444 -85.9453 270° West 373 429 38,000  Level Chicago Center
03:45PM 40.8439 -86.0847 270° West 378 435 38,000  Level Chicago Center
03:46PM 40.8436 -86.2231 270° West 377 434 38,000  Level Chicago Center
03:47PM 40.8428 -86.3592 270° West 374 430 38,000  Level Chicago Center
03:48PM 40.8428 -86.4961 270° West 373 429 38,000  Level Chicago Center
03:49PM 40.8400 -86.6594 269° West 371 427 38,000  Level Chicago Center
03:50PM 40.8389 -86.7914 269° West 367 422 38,000  Level Chicago Center
03:52PM 40.8383 -86.9269 270° West 368 423 38,000  Level Chicago Center
03:53PM 40.8361 -87.0628 269° West 371 427 38,000  Level Chicago Center
03:54PM 40.8347 -87.1994 269° West 372 428 38,000  Level Chicago Center
03:55PM 40.8325 -87.3347 269° West 370 426 38,000  Level Chicago Center
03:56PM 40.8297 -87.4992 269° West 372 428 38,000  Level Chicago Center
03:57PM 40.8281 -87.6353 269° West 372 428 38,000  Level Chicago Center
03:58PM 40.8256 -87.7731 269° West 374 430 38,000  Level Chicago Center
03:59PM 40.8231 -87.9117 269° West 377 434 38,000  Level Chicago Center
04:00PM 40.8214 -88.0500 269° West 377 434 38,000  Level Chicago Center
04:01PM 40.8181 -88.1897 268° West 379 436 38,000  Level Chicago Center
04:02PM 40.8144 -88.3300 268° West 382 440 38,000  Level Chicago Center
04:03PM 40.8103 -88.4967 268° West 379 436 38,000  Level Chicago Center
04:04PM 40.8078 -88.6344 269° West 377 434 38,000  Level Chicago Center
04:05PM 40.8042 -88.7728 268° West 378 435 38,000  Level Chicago Center
04:06PM 40.8000 -88.9006 268° West 381 438 38,000  Level Chicago Center
04:07PM 40.7956 -89.0658 268° West 377 434 38,000  Level Chicago Center
04:08PM 40.7906 -89.2042 267° West 379 436 38,000  Level Chicago Center
04:09PM 40.7853 -89.3453 267° West 386 444 38,000  Level Chicago Center
04:10PM 40.7811 -89.4853 268° West 384 442 38,000  Level Chicago Center
04:11PM 40.7764 -89.6369 268° West 385 443 38,000  Level Chicago Center
04:12PM 40.7736 -89.7794 269° West 389 448 38,000  Level Chicago Center
04:13PM 40.7675 -89.9197 267° West 386 444 38,000  Level Chicago Center
04:14PM 40.7606 -90.0594 266° West 384 442 38,000  Level Chicago Center
04:15PM 40.7539 -90.2281 267° West 384 442 38,000  Level Chicago Center
04:16PM 40.7492 -90.3481 267° West 382 440 38,000  Level Chicago Center
04:17PM 40.7417 -90.5158 267° West 382 440 38,000  Level Chicago Center
04:18PM 40.7353 -90.6561 267° West 384 442 38,000  Level Chicago Center
04:19PM 40.7300 -90.7958 267° West 384 442 38,000  Level Chicago Center
04:20PM 40.7289 -90.8236 267° West 382 440 38,000  Level Chicago Center
04:21PM 40.7225 -90.9639 267° West 383 441 38,000  Level Chicago Center
04:22PM 40.7153 -91.1025 266° West 380 437 38,000  Level Chicago Center
04:23PM 40.7092 -91.2419 267° West 383 441 38,000  Level Chicago Center
04:24PM 40.7008 -91.3992 266° West 384 442 38,000  Level Chicago Center
04:25PM 40.6942 -91.5383 266° West 385 443 38,000  Level Chicago Center
04:26PM 40.6867 -91.6789 266° West 387 445 38,000  Level Chicago Center
04:27PM 40.6783 -91.8456 266° West 385 443 38,000  Level Chicago Center
04:28PM 40.6711 -91.9861 266° West 387 445 38,000  Level Chicago Center
04:29PM 40.6625 -92.1244 265° West 385 443 38,000  Level Chicago Center
04:31PM 40.6492 -92.3761 266° West 388 447 38,000  Level Kansas City Center
04:32PM 40.6406 -92.5167 265° West 391 450 38,000  Level Kansas City Center
04:33PM 40.6314 -92.6567 265° West 391 450 38,000  Level Kansas City Center
04:34PM 40.6228 -92.7975 265° West 392 451 38,000  Level Kansas City Center
04:35PM 40.6133 -92.9378 265° West 392 451 38,000  Level Kansas City Center
04:36PM 40.6039 -93.1042 266° West 385 443 38,000  Level Kansas City Center
04:37PM 40.5947 -93.2431 265° West 386 444 38,000  Level Kansas City Center
04:38PM 40.5850 -93.3839 265° West 390 449 38,000  Level Kansas City Center
04:39PM 40.5761 -93.5228 265° West 387 445 38,000  Level Kansas City Center
04:40PM 40.5667 -93.6364 264° West 389 448 38,000  Level Minneapolis Center
04:41PM 40.5547 -93.7783 264° West 392 451 38,000  Level Minneapolis Center
04:42PM 40.5464 -93.9203 266° West 393 452 38,000  Level Minneapolis Center
04:43PM 40.5344 -94.0622 264° West 394 453 38,000  Level Minneapolis Center
04:44PM 40.5247 -94.2039 265° West 394 453 38,000  Level Minneapolis Center
04:45PM 40.5119 -94.3758 264° West 396 456 38,000  Level Minneapolis Center
04:46PM 40.5011 -94.5172 264° West 393 452 38,000  Level Minneapolis Center
04:47PM 40.4903 -94.6550 264° West 392 451 38,000  Level Minneapolis Center
04:48PM 40.4794 -94.7950 264° West 387 445 38,000  Level Minneapolis Center
04:49PM 40.4697 -94.9344 265° West 385 443 38,000  Level Minneapolis Center
04:50PM 40.4578 -95.0997 265° West 382 440 38,000  Level Minneapolis Center
04:51PM 40.4453 -95.2419 263° West 385 443 38,000  Level Minneapolis Center
04:52PM 40.4325 -95.3853 263° West 392 451 38,000  Level Minneapolis Center
04:53PM 40.4203 -95.5269 264° West 391 450 38,000  Level Minneapolis Center
04:54PM 40.4075 -95.6683 263° West 390 449 38,000  Level Minneapolis Center
04:55PM 40.3956 -95.8114 264° West 392 451 38,000  Level Minneapolis Center
04:56PM 40.3833 -95.9550 264° West 395 455 38,000  Level Minneapolis Center
04:57PM 40.3700 -96.0969 263° West 392 451 38,000  Level Minneapolis Center
04:58PM 40.3536 -96.2711 263° West 398 458 38,000  Level Minneapolis Center
04:59PM 40.3414 -96.4164 264° West 400 460 38,000  Level Minneapolis Center
05:00PM 40.3261 -96.5622 262° West 402 463 38,000  Level Minneapolis Center
05:01PM 40.3131 -96.7078 263° West 402 463 38,000  Level Minneapolis Center
05:02PM 40.2994 -96.8536 263° West 402 463 38,000  Level Minneapolis Center
05:03PM 40.2839 -96.9994 262° West 403 464 38,000  Level Minneapolis Center
05:04PM 40.2681 -97.1733 263° West 402 463 38,000  Level Minneapolis Center
05:05PM 40.2528 -97.3161 262° West 397 457 38,000  Level Minneapolis Center
05:06PM 40.2375 -97.4622 262° West 396 456 38,000  Level Minneapolis Center
05:07PM 40.2231 -97.6033 262° West 392 451 38,000  Level Minneapolis Center
05:08PM 40.2078 -97.7458 262° West 393 452 38,000  Level Minneapolis Center
05:09PM 40.1931 -97.8886 262° West 394 453 38,000  Level Minneapolis Center
05:10PM 40.1775 -98.0336 262° West 399 459 38,000  Level Minneapolis Center
05:11PM 40.1617 -98.1775 262° West 400 460 38,000  Level Minneapolis Center
05:12PM 40.1464 -98.3219 262° West 400 460 38,000  Level Minneapolis Center
05:14PM 40.1297 -98.4683 262° West 403 464 38,000  Level Minneapolis Center
05:15PM 40.1092 -98.6422 261° West 403 464 38,000  Level Minneapolis Center
05:16PM 40.0933 -98.7894 262° West 406 467 38,000  Level Minneapolis Center
05:17PM 40.0769 -98.9372 262° West 408 470 38,000  Level Minneapolis Center
05:18PM 40.0594 -99.0822 261° West 406 467 38,000  Level Minneapolis Center
05:19PM 40.0417 -99.2256 261° West 402 463 38,000  Level Minneapolis Center
05:20PM 40.0256 -99.3722 262° West 404 465 38,000  Level Minneapolis Center
05:21PM 40.0075 -99.5153 261° West 402 463 38,000  Level Minneapolis Center
05:22PM 39.9894 -99.6592 261° West 401 461 38,000  Level Minneapolis Center
05:23PM 39.9681 -99.8331 261° West 404 465 38,000  Level Minneapolis Center
05:24PM 39.9497 -99.9786 261° West 405 466 38,000  Level Minneapolis Center
05:25PM 39.9317 -100.1264 261° West 408 470 38,000  Level Minneapolis Center
05:26PM 39.9136 -100.2736 261° West 410 472 38,000  Level Minneapolis Center
05:27PM 39.8944 -100.4208 260° West 411 473 38,000  Level Minneapolis Center
05:28PM 39.8667 -100.6233 260° West 410 472 38,000  Level Denver Center
05:29PM 39.8483 -100.7606 260° West 405 466 38,000  Level Denver Center
05:30PM 39.8272 -100.9225 260° West 405 466 38,000  Level Denver Center
05:31PM 39.8075 -101.0592 259° West 403 464 38,000  Level Denver Center
05:32PM 39.7856 -101.2208 260° West 405 466 38,000  Level Denver Center
05:33PM 39.7675 -101.3592 260° West 406 467 38,000  Level Denver Center
05:34PM 39.7481 -101.4956 260° West 402 463 38,000  Level Denver Center
05:35PM 39.7256 -101.6575 260° West 406 467 38,000  Level Denver Center
05:36PM 39.7053 -101.7947 259° West 404 465 38,000  Level Denver Center
05:38PM 39.6822 -101.9581 260° West 408 470 38,000  Level Denver Center
05:39PM 39.6617 -102.0969 259° West 410 472 38,000  Level Denver Center
05:40PM 39.6383 -102.2606 260° West 414 476 38,000  Level Denver Center
05:41PM 39.6175 -102.4006 259° West 413 475 38,000  Level Denver Center
05:42PM 39.5942 -102.5550 259° West 414 476 38,000  Level Denver Center
05:43PM 39.5722 -102.7042 259° West 421 484 38,000  Level Denver Center
05:44PM 39.5497 -102.8506 259° West 416 479 38,000  Level Denver Center
05:45PM 39.5286 -103.0003 260° West 423 487 38,000  Level Denver Center
05:46PM 39.5039 -103.1489 258° West 422 486 38,000  Level Denver Center
05:47PM 39.4767 -103.3267 259° West 422 486 38,000  Level Denver Center
05:48PM 39.4536 -103.4736 259° West 418 481 38,000  Level Denver Center
05:49PM 39.4303 -103.6197 258° West 415 478 38,000  Level Denver Center
05:50PM 39.4078 -103.7683 259° West 420 483 38,000  Level Denver Center
05:51PM 39.3833 -103.9128 258° West 410 472 38,000  Level Denver Center
05:52PM 39.3594 -104.0586 258° West 414 476 38,000  Level Denver Center
05:53PM 39.3356 -104.2097 258° West 428 493 38,000  Level Denver Center
05:54PM 39.3056 -104.3867 258° West 421 484 38,000  Level Denver Center
05:55PM 39.2803 -104.5358 258° West 422 486 38,000  Level Denver Center
05:56PM 39.2550 -104.6844 258° West 421 484 38,000  Level Denver Center
05:57PM 39.2306 -104.8319 258° West 419 482 38,000  Level Denver Center
05:58PM 39.2056 -104.9781 258° West 416 479 38,100  Climbing Denver Center
05:59PM 39.1797 -105.1261 257° West 420 483 38,000 -60 Descending Denver Center
06:00PM 39.1553 -105.2722 258° West 416 479 38,000  Level Denver Center
06:01PM 39.1292 -105.4183 257° West 417 480 38,000  Level Denver Center
06:02PM 39.1039 -105.5606 257° West 409 471 38,000  Level Denver Center
06:03PM 39.0739 -105.7303 257° West 406 467 38,000  Level Denver Center
06:04PM 39.0494 -105.8725 258° West 408 470 38,000  Level Denver Center
06:05PM 39.0239 -106.0119 257° West 404 465 38,000  Level Denver Center
06:06PM 38.9981 -106.1544 257° West 408 470 38,000  Level Denver Center
06:07PM 38.9717 -106.2969 257° West 412 474 38,000  Level Denver Center
06:08PM 38.9422 -106.4578 257° West 413 475 38,000  Level Denver Center
06:09PM 38.9150 -106.5958 256° West 416 479 38,000  Level Denver Center
06:11PM 38.8847 -106.7556 256° West 413 475 38,000  Level Denver Center
06:12PM 38.8575 -106.9000 256° West 413 475 38,000  Level Denver Center
06:13PM 38.8300 -107.0433 256° West 412 474 38,000  Level Denver Center
06:14PM 38.8017 -107.1869 256° West 413 475 38,000  Level Denver Center
06:15PM 38.7703 -107.3522 256° West 420 483 38,000  Level Denver Center
06:16PM 38.7428 -107.4947 256° West 428 493 38,000  Level Denver Center
06:17PM 38.7156 -107.6350 256° West 426 490 38,000  Level Denver Center
06:18PM 38.6831 -107.7969 256° West 421 484 38,000  Level Denver Center
06:19PM 38.6558 -107.9367 256° West 422 486 38,000  Level Denver Center
06:20PM 38.6225 -108.0992 255° West 423 487 38,000  Level Denver Center
06:21PM 38.5947 -108.2369 256° West 419 482 38,000  Level Denver Center
06:22PM 38.5622 -108.4000 256° West 420 483 38,000  Level Denver Center
06:23PM 38.5339 -108.5386 255° West 421 484 38,000  Level Denver Center
06:24PM 38.5008 -108.7000 255° West 419 482 38,000  Level Denver Center
06:25PM 38.4719 -108.8383 255° West 420 483 38,000  Level Denver Center
06:26PM 38.4425 -108.9769 255° West 423 487 38,000  Level Denver Center
06:27PM 38.4086 -109.1403 255° West 426 490 38,000  Level Denver Center
06:28PM 38.3792 -109.2817 255° West 431 496 38,000  Level Denver Center
06:29PM 38.3425 -109.4436 254° West 426 490 38,000  Level Denver Center
06:30PM 38.3125 -109.5853 255° West 430 495 38,000  Level Denver Center
06:31PM 38.2775 -109.7464 255° West 425 489 38,000  Level Denver Center
06:32PM 38.2469 -109.8875 255° West 430 495 38,000  Level Denver Center
06:33PM 38.2108 -110.0500 254° West 428 493 38,000  Level Denver Center
06:34PM 38.1803 -110.1897 254° West 429 494 38,000 -480 Level Denver Center
06:35PM 38.1447 -110.3275 252° West 429 494 37,100 -960 Descending Denver Center
06:36PM 38.0736 -110.5069 243° Southwest 441 507 36,000 -540 Descending Salt Lake Center
06:37PM 38.0289 -110.6189 243° Southwest 446 513 36,000  Level Denver Center
06:38PM 37.9653 -110.7753 243° Southwest 448 516 36,000  Level Denver Center
06:39PM 37.9094 -110.9169 243° Southwest 450 518 36,000  Level Denver Center
06:40PM 37.8539 -111.0583 244° Southwest 449 517 36,000  Level Denver Center
06:41PM 37.7958 -111.1994 243° Southwest 452 520 36,000  Level Denver Center
06:42PM 37.7394 -111.3406 243° Southwest 450 518 36,000 -420 Level Denver Center
06:44PM 37.6697 -111.5111 243° Southwest 454 522 35,200 -900 Descending Salt Lake Center
06:45PM 37.6122 -111.6517 243° Southwest 452 520 34,200 -1,020 Descending Salt Lake Center
06:46PM 37.5547 -111.7900 242° Southwest 448 516 33,200 -960 Descending Salt Lake Center
06:47PM 37.4981 -111.9297 243° Southwest 446 513 32,300 -600 Descending Salt Lake Center
06:48PM 37.4406 -112.0686 242° Southwest 447 514 32,000 -240 Descending Salt Lake Center
06:48PM 37.4067 -112.1522 243° Southwest 445 512 32,000  Level Los Angeles Center
06:49PM 37.3472 -112.2919 242° Southwest 447 514 32,000  Level Los Angeles Center
06:51PM 37.2883 -112.4322 242° Southwest 450 518 32,000 -180 Level Los Angeles Center
06:52PM 37.2161 -112.6006 242° Southwest 453 521 31,700 -780 Descending Los Angeles Center
06:53PM 37.1317 -112.7997 242° Southwest 460 529 30,300 -1,140 Descending Los Angeles Center
06:54PM 37.0592 -112.9697 242° Southwest 460 529 29,100 -960 Descending Los Angeles Center
06:55PM 36.9989 -113.1075 241° Southwest 451 519 28,200 -540 Descending Los Angeles Center
06:56PM 36.9408 -113.2450 242° Southwest 447 514 28,000 -120 Descending Los Angeles Center
06:57PM 36.8822 -113.3800 242° Southwest 442 509 28,000  Level Los Angeles Center
06:58PM 36.8242 -113.5153 242° Southwest 442 509 28,000 -840 Level Los Angeles Center
06:59PM 36.7650 -113.6494 241° Southwest 441 507 26,400 -1,980 Descending Los Angeles Center
07:00PM 36.7089 -113.7792 242° Southwest 428 493 24,000 -2,520 Descending Los Angeles Center
07:01PM 36.6439 -113.9283 242° Southwest 411 473 21,200 -2,460 Descending Los Angeles Center
07:02PM 36.5900 -114.0486 241° Southwest 400 460 19,000 -2,040 Descending Los Angeles Center
07:03PM 36.5383 -114.1628 241° Southwest 381 438 17,100 -1,980 Descending Los Angeles Center
07:04PM 36.4914 -114.2689 241° Southwest 367 422 15,000 -2,400 Descending Los Angeles Center
07:04PM 36.4775 -114.3017 242° Southwest 368 423 14,400 -2,160 Descending Los Angeles Center
07:05PM 36.4414 -114.3772 239° Southwest 362 417 12,800 -1,800 Descending Los Angeles Center
07:06PM 36.4172 -114.4292 240° Southwest 352 405 12,200 -1,260 Descending Los Angeles Center
07:06PM 36.3622 -114.4811 217° Southwest 354 407 11,500 -1,020 Descending Los Angeles Center
07:07PM 36.3386 -114.5042 218° Southwest 358 412 11,200 -1,020 Descending Los Angeles Center
07:07PM 36.2806 -114.5492 212° Southwest 352 405 10,500 -1,080 Descending Los Angeles Center
07:08PM 36.2494 -114.5797 218° Southwest 331 381 10,000 -1,020 Descending Los Angeles Center
07:09PM 36.1892 -114.6297 214° Southwest 303 349 9,200 -1,080 Descending Los Angeles Center
07:09PM 36.1417 -114.6681 213° Southwest 300 345 8,200 -1,320 Descending Los Angeles Center
07:10PM 36.1294 -114.6817 222° Southwest 288 331 8,000 -240 Descending Los Angeles Center
07:11PM 36.0800 -114.7214 213° Southwest 284 327 8,000  Level Los Angeles Center
07:11PM 36.0761 -114.7342 249° West 245 282 8,000 -720 Level Los Angeles Center
07:12PM 36.0722 -114.7958 266° West 254 292 7,300 -840 Descending Los Angeles Center
07:12PM 36.0731 -114.8178 273° West 228 262 7,200 -900 Descending Los Angeles Center
07:13PM 36.0731 -114.8872 270° West 201 231 6,300 -660 Descending Los Angeles Center
07:13PM 36.0733 -114.8686 89° East 229 264 6,500 -1,380 Climbing Los Angeles Center
07:14PM 36.0739 -114.9506 271° West 183 211 4,900 -1,620 Descending Los Angeles Center
07:14PM 36.0731 -114.9572 261° West 199 229 4,800 -1,140 Descending Los Angeles Center
07:15PM 36.0731 -115.0150 270° West 182 209 3,800 -1,080 Descending Los Angeles Center
07:15PM 36.0733 -115.0194 274° West 187 215 3,700 -840 Descending Los Angeles Center
07:16PM 36.0736 -115.0678 270° West 149 171 3,000 -720 Descending Los Angeles Center
07:16PM 36.0733 -115.0739 267° West 174 200 3,000 -840 Level Los Angeles Center
07:17PM 36.0739 -115.1183 271° West 145 167 2,200 -780 Descending Los Angeles Center
07:17PM 36.0733 -115.1219 259° West 156 180 2,200  Level Los Angeles Center
07:19PM 36.0667 -115.1500 219° Southwest  Level FlightAware Approximate